Time;durP1;ratioP1;P1;durP2;ratioP2;P2;SDS_P1;SDS_P2;PMS_P1;PMS_P2;Temp;Humidity;BMP_temperature;BMP_pressure;BME280_temperature;BME280_humidity;BME280_pressure;Samples;Min_cycle;Max_cycle;Signal;HPM_P1;HPM_P2
2021/11/23 00:00:20;;;;;;;1.02;0.40;;;20.40;28.70;20.80;94277.00;;;;10366150;28;47032;-64
2021/11/23 00:05:21;;;;;;;0.40;0.30;;;20.40;28.70;20.80;94265.00;;;;10366385;28;45981;-65
2021/11/23 00:10:21;;;;;;;0.30;0.20;;;20.40;28.60;20.80;94272.00;;;;10395376;22;45963;-68
2021/11/23 00:15:22;;;;;;;0.20;0.13;;;20.40;28.70;20.80;94278.00;;;;10319168;28;48157;-65
2021/11/23 00:20:23;;;;;;;0.20;0.20;;;20.40;28.60;20.80;94284.00;;;;10299079;28;45419;-66
2021/11/23 00:25:25;;;;;;;0.35;0.30;;;20.40;28.70;20.80;94267.00;;;;10294593;28;47378;-64
2021/11/23 00:30:27;;;;;;;0.20;0.20;;;20.40;28.60;20.80;94272.00;;;;10293566;28;45438;-66
2021/11/23 00:35:28;;;;;;;0.30;0.25;;;20.40;28.60;20.80;94273.00;;;;10292637;28;47458;-67
2021/11/23 00:40:29;;;;;;;0.40;0.30;;;20.30;28.50;20.80;94263.00;;;;10292030;28;47167;-67
2021/11/23 00:45:31;;;;;;;0.25;0.25;;;20.40;28.60;20.80;94272.00;;;;10292954;28;45186;-66
2021/11/23 00:50:33;;;;;;;0.55;0.30;;;20.30;28.50;20.70;94271.00;;;;10277327;28;47068;-65
2021/11/23 00:55:34;;;;;;;0.20;0.20;;;20.40;28.50;20.70;94280.00;;;;10299714;28;47332;-67
2021/11/23 01:00:36;;;;;;;0.52;0.30;;;20.30;28.50;20.80;94291.00;;;;10299007;28;48334;-67
2021/11/23 01:05:36;;;;;;;0.35;0.30;;;20.30;28.50;20.70;94273.00;;;;10300179;28;45227;-65
2021/11/23 01:10:37;;;;;;;0.28;0.28;;;20.30;28.80;20.70;94280.00;;;;10298982;28;47168;-65
2021/11/23 01:15:38;;;;;;;0.20;0.20;;;20.30;28.40;20.70;94291.00;;;;10300419;28;45107;-65
2021/11/23 01:20:39;;;;;;;0.28;0.28;;;20.30;28.50;20.70;94291.00;;;;10299631;28;47423;-67
2021/11/23 01:25:39;;;;;;;0.43;0.43;;;20.30;28.40;20.70;94294.00;;;;10283062;28;47128;-67
2021/11/23 01:30:40;;;;;;;0.50;0.47;;;20.30;28.50;20.70;94293.00;;;;10298553;28;47212;-68
2021/11/23 01:35:41;;;;;;;0.80;0.40;;;20.30;28.40;20.70;94278.00;;;;10298933;28;47011;-64
2021/11/23 01:40:44;;;;;;;0.30;0.30;;;20.30;28.40;20.70;94304.00;;;;10299016;28;45437;-67
2021/11/23 01:45:45;;;;;;;0.30;0.30;;;20.30;28.40;20.70;94300.00;;;;10300056;28;45239;-64
2021/11/23 01:50:46;;;;;;;0.63;0.30;;;20.20;28.40;20.70;94318.00;;;;10297752;28;45470;-64
2021/11/23 01:55:47;;;;;;;0.65;0.43;;;20.30;28.40;20.70;94324.00;;;;10299060;28;45133;-66
2021/11/23 02:00:47;;;;;;;0.80;0.45;;;20.30;28.30;20.70;94328.00;;;;10296233;28;47074;-69
2021/11/23 02:05:48;;;;;;;0.30;0.30;;;20.20;28.40;20.70;94319.00;;;;10296266;28;47954;-67
2021/11/23 02:10:49;;;;;;;0.40;0.40;;;20.30;28.40;20.70;94322.00;;;;10298090;28;46183;-64
2021/11/23 02:15:50;;;;;;;0.30;0.30;;;20.20;28.40;20.70;94338.00;;;;10298655;28;48193;-65
2021/11/23 02:20:52;;;;;;;0.38;0.38;;;20.20;28.30;20.70;94331.00;;;;10297791;28;47153;-66
2021/11/23 02:25:52;;;;;;;0.47;0.30;;;20.20;28.20;20.70;94322.00;;;;10280925;28;47292;-64
2021/11/23 02:30:58;;;;;;;0.40;0.40;;;20.20;28.30;20.70;94337.00;;;;10296620;28;47000;-65
2021/11/23 02:36:03;;;;;;;0.50;0.30;;;20.20;28.30;20.60;94329.00;;;;10296783;28;47553;-64
2021/11/23 02:41:07;;;;;;;0.57;0.40;;;20.20;28.30;20.70;94316.00;;;;10296215;28;47000;-66
2021/11/23 02:46:09;;;;;;;0.30;0.30;;;20.20;28.30;20.70;94304.00;;;;10280924;28;47234;-65
2021/11/23 02:51:16;;;;;;;0.50;0.30;;;20.20;28.30;20.70;94323.00;;;;10297626;28;46979;-67
2021/11/23 02:56:18;;;;;;;0.30;0.30;;;20.20;28.30;20.70;94330.00;;;;10297290;28;47534;-65
2021/11/23 03:01:22;;;;;;;0.45;0.30;;;20.20;28.30;20.60;94309.00;;;;10279419;28;46911;-65
2021/11/23 03:06:23;;;;;;;0.25;0.25;;;20.20;28.20;20.60;94316.00;;;;10296613;28;48148;-68
2021/11/23 03:11:24;;;;;;;0.20;0.20;;;20.20;28.20;20.60;94296.00;;;;10296517;28;45410;-64
2021/11/23 03:16:24;;;;;;;0.22;0.22;;;20.20;28.30;20.60;94301.00;;;;10295570;28;47037;-65
2021/11/23 03:21:25;;;;;;;0.40;0.30;;;20.20;28.20;20.60;94325.00;;;;10295827;28;45442;-67
2021/11/23 03:26:26;;;;;;;0.30;0.30;;;20.20;28.20;20.60;94320.00;;;;10295864;28;45410;-64
2021/11/23 03:31:26;;;;;;;0.50;0.25;;;20.20;28.10;20.60;94338.00;;;;10296154;28;46489;-67
2021/11/23 03:36:27;;;;;;;0.20;0.20;;;20.20;28.20;20.60;94330.00;;;;10295926;28;46609;-66
2021/11/23 03:41:28;;;;;;;0.30;0.30;;;20.20;28.70;20.60;94337.00;;;;10295776;28;45354;-67
2021/11/23 03:46:28;;;;;;;0.25;0.20;;;20.20;28.10;20.60;94337.00;;;;10295089;28;46862;-64
2021/11/23 03:51:29;;;;;;;0.47;0.47;;;20.20;28.10;20.60;94320.00;;;;10277956;28;47251;-67
2021/11/23 03:56:30;;;;;;;0.30;0.30;;;20.20;28.10;20.60;94321.00;;;;10294084;28;45250;-66
2021/11/23 04:01:30;;;;;;;0.20;0.20;;;20.20;28.00;20.60;94313.00;;;;10278422;28;46642;-66
2021/11/23 04:06:31;;;;;;;0.20;0.20;;;20.20;28.00;20.60;94337.00;;;;10295580;28;45340;-67
2021/11/23 04:11:33;;;;;;;0.38;0.38;;;20.20;28.00;20.60;94324.00;;;;10292880;28;45589;-67
2021/11/23 04:16:33;;;;;;;0.28;0.25;;;20.20;28.00;20.60;94326.00;;;;10294133;28;47579;-64
2021/11/23 04:21:34;;;;;;;0.40;0.30;;;20.20;28.00;20.60;94300.00;;;;10294730;28;48079;-64
2021/11/23 04:26:35;;;;;;;0.32;0.30;;;20.20;28.00;20.60;94306.00;;;;10295770;28;45456;-66
2021/11/23 04:31:35;;;;;;;0.17;0.17;;;20.20;28.00;20.60;94324.00;;;;10301083;28;45309;-64
2021/11/23 04:36:36;;;;;;;0.50;0.20;;;20.20;28.00;20.60;94334.00;;;;10300496;28;48486;-65
2021/11/23 04:41:40;;;;;;;0.20;0.20;;;20.20;28.00;20.60;94330.00;;;;10300254;28;48144;-65
2021/11/23 04:46:42;;;;;;;0.15;0.15;;;20.20;28.00;20.60;94324.00;;;;10299794;28;45818;-66
2021/11/23 04:51:43;;;;;;;0.28;0.20;;;20.20;27.90;20.60;94320.00;;;;10300826;28;47105;-66
2021/11/23 04:56:43;;;;;;;0.57;0.20;;;20.20;28.00;20.60;94334.00;;;;10300713;28;45718;-67
2021/11/23 05:01:44;;;;;;;0.20;0.20;;;20.20;28.00;20.60;94339.00;;;;10299914;28;47247;-66
2021/11/23 05:06:45;;;;;;;0.30;0.30;;;20.20;27.90;20.70;94343.00;;;;10300152;28;45444;-64
2021/11/23 05:11:48;;;;;;;0.17;0.17;;;20.20;27.90;20.70;94324.00;;;;10283966;28;48622;-67
2021/11/23 05:16:49;;;;;;;0.60;0.22;;;20.20;28.00;20.70;94337.00;;;;10283271;28;47358;-67
2021/11/23 05:21:50;;;;;;;0.45;0.30;;;20.20;27.90;20.80;94340.00;;;;10282248;28;47204;-67
2021/11/23 05:26:51;;;;;;;0.35;0.32;;;20.30;28.00;20.80;94337.00;;;;10299608;28;46810;-66
2021/11/23 05:31:51;;;;;;;0.30;0.30;;;20.40;28.00;20.90;94343.00;;;;10298585;28;45266;-66
2021/11/23 05:36:52;;;;;;;0.68;0.40;;;20.40;27.90;20.90;94344.00;;;;10297599;28;46248;-65
2021/11/23 05:41:53;;;;;;;0.63;0.47;;;20.40;27.80;20.90;94335.00;;;;10281905;28;47190;-66
2021/11/23 05:46:54;;;;;;;0.40;0.30;;;20.50;27.80;20.90;94340.00;;;;10297877;28;46586;-67
2021/11/23 05:51:55;;;;;;;0.50;0.40;;;20.50;27.80;21.00;94346.00;;;;10298627;28;47058;-67
2021/11/23 05:56:55;;;;;;;0.40;0.30;;;20.50;27.80;21.00;94349.00;;;;10298528;28;47069;-67
2021/11/23 06:01:56;;;;;;;0.63;0.40;;;20.60;27.80;21.00;94335.00;;;;10296974;28;47221;-67
2021/11/23 06:06:57;;;;;;;0.90;0.40;;;20.60;27.80;21.00;94355.00;;;;10297197;28;45471;-67
2021/11/23 06:11:58;;;;;;;0.30;0.30;;;20.60;27.70;21.00;94342.00;;;;10297002;28;46918;-66
2021/11/23 06:16:59;;;;;;;0.40;0.30;;;20.60;27.70;21.00;94355.00;;;;10296618;28;47131;-67
2021/11/23 06:22:00;;;;;;;0.47;0.30;;;20.60;27.80;21.10;94359.00;;;;10280620;28;46853;-67
2021/11/23 06:27:01;;;;;;;0.60;0.40;;;20.60;27.50;21.10;94355.00;;;;10297207;28;45232;-66
2021/11/23 06:32:02;;;;;;;0.40;0.30;;;20.60;27.60;21.10;94376.00;;;;10296770;28;45538;-67
2021/11/23 06:37:03;;;;;;;0.43;0.35;;;20.60;27.60;21.10;94372.00;;;;10296120;28;47320;-67
2021/11/23 06:42:04;;;;;;;0.30;0.30;;;20.60;27.60;21.10;94384.00;;;;10295550;28;48148;-67
2021/11/23 06:47:04;;;;;;;0.43;0.32;;;20.60;27.60;21.10;94380.00;;;;10279164;28;47803;-65
2021/11/23 06:52:06;;;;;;;0.30;0.30;;;20.60;27.50;21.10;94395.00;;;;10296476;28;45420;-65
2021/11/23 06:57:07;;;;;;;0.40;0.35;;;20.70;27.50;21.10;94412.00;;;;10296559;28;48136;-65
2021/11/23 07:02:08;;;;;;;0.40;0.30;;;20.70;27.50;21.10;94418.00;;;;10296760;28;46778;-67
2021/11/23 07:07:09;;;;;;;0.85;0.50;;;20.70;27.60;21.10;94427.00;;;;10296714;28;45233;-67
2021/11/23 07:12:10;;;;;;;0.32;0.30;;;20.70;27.50;21.10;94419.00;;;;10297057;28;46853;-68
2021/11/23 07:17:12;;;;;;;0.32;0.32;;;20.70;27.50;21.00;94436.00;;;;10296554;28;45361;-69
2021/11/23 07:22:12;;;;;;;0.50;0.38;;;20.60;27.50;21.00;94436.00;;;;10296986;28;45517;-68
2021/11/23 07:27:13;;;;;;;0.47;0.35;;;20.60;27.70;21.00;94449.00;;;;10279870;28;47003;-68
2021/11/23 07:32:14;;;;;;;1.10;0.50;;;20.60;27.50;21.00;94447.00;;;;10299195;28;46388;-66
2021/11/23 07:37:15;;;;;;;0.40;0.40;;;20.60;27.50;21.00;94443.00;;;;10279690;28;48259;-68
2021/11/23 07:42:16;;;;;;;0.45;0.40;;;20.60;27.60;21.00;94451.00;;;;10295930;28;46877;-68
2021/11/23 07:47:16;;;;;;;0.50;0.50;;;20.60;27.50;21.00;94449.00;;;;10295521;28;45427;-67
2021/11/23 07:52:17;;;;;;;1.20;0.73;;;20.60;27.50;20.90;94461.00;;;;10295092;28;48210;-67
2021/11/23 07:57:19;;;;;;;0.90;0.70;;;20.50;27.50;20.90;94458.00;;;;10294198;28;47145;-68
2021/11/23 08:02:20;;;;;;;0.93;0.77;;;20.50;27.30;20.80;94459.00;;;;10294894;28;48281;-68
2021/11/23 08:07:21;;;;;;;0.80;0.68;;;20.50;27.20;20.80;94459.00;;;;10274087;28;45584;-67
2021/11/23 08:12:21;;;;;;;0.73;0.60;;;20.50;27.20;20.80;94465.00;;;;10253654;28;47230;-68
2021/11/23 08:17:22;;;;;;;1.83;0.60;;;20.50;26.70;20.80;94476.00;;;;10236585;28;47142;-68
2021/11/23 08:22:23;;;;;;;0.60;0.50;;;20.50;27.10;20.90;94477.00;;;;10237654;28;47170;-67
2021/11/23 08:27:24;;;;;;;0.98;0.60;;;20.50;27.20;20.90;94460.00;;;;10252291;28;45473;-67
2021/11/23 08:32:26;;;;;;;1.10;0.57;;;20.50;27.80;20.90;94486.00;;;;10252836;28;47109;-68
2021/11/23 08:37:27;;;;;;;0.52;0.40;;;20.50;27.30;20.90;94482.00;;;;10252551;28;47506;-67
2021/11/23 08:42:28;;;;;;;1.15;0.68;;;20.50;27.40;20.90;94471.00;;;;10252899;28;46493;-67
2021/11/23 08:47:29;;;;;;;0.57;0.50;;;20.50;27.30;20.90;94485.00;;;;10255300;28;46858;-68
2021/11/23 08:52:29;;;;;;;1.38;0.60;;;20.50;27.20;21.00;94484.00;;;;10270777;28;46843;-68
2021/11/23 08:57:30;;;;;;;0.98;0.50;;;20.50;27.40;20.90;94482.00;;;;10245040;28;45558;-68
2021/11/23 09:02:33;;;;;;;0.57;0.50;;;20.50;27.20;20.90;94486.00;;;;10256238;28;45623;-66
2021/11/23 09:07:34;;;;;;;4.00;0.73;;;20.60;27.40;21.00;94487.00;;;;10238580;28;47155;-68
2021/11/23 09:12:36;;;;;;;5.00;0.77;;;20.60;27.50;20.90;94488.00;;;;10239076;28;47075;-68
2021/11/23 09:17:37;;;;;;;2.55;0.60;;;20.60;29.30;21.00;94489.00;;;;10242840;28;47175;-68
2021/11/23 09:22:40;;;;;;;0.65;0.50;;;20.60;29.20;21.00;94494.00;;;;10258640;28;46393;-70
2021/11/23 09:27:41;;;;;;;0.70;0.50;;;20.60;29.20;21.00;94487.00;;;;10242755;28;47999;-68
2021/11/23 09:32:42;;;;;;;0.80;0.70;;;20.70;29.00;21.00;94509.00;;;;10257968;28;47643;-67
2021/11/23 09:37:43;;;;;;;2.15;0.93;;;20.70;28.60;21.00;94493.00;;;;10257229;28;47284;-69
2021/11/23 09:42:48;;;;;;;4.32;1.88;;;20.60;28.30;21.10;94513.00;;;;10241863;28;46990;-66
2021/11/23 09:47:49;;;;;;;2.97;1.40;;;20.70;28.30;21.10;94507.00;;;;10263123;28;47177;-68
2021/11/23 09:52:50;;;;;;;2.78;1.10;;;20.70;28.20;21.00;94497.00;;;;10297414;28;45133;-69
2021/11/23 09:57:51;;;;;;;3.58;1.48;;;20.70;27.40;20.90;94512.00;;;;10239692;28;48173;-66
2021/11/23 10:02:53;;;;;;;2.00;1.08;;;20.60;26.70;20.90;94511.00;;;;10279673;28;48089;-65
2021/11/23 10:07:54;;;;;;;3.63;1.33;;;20.60;26.50;20.90;94523.00;;;;10297123;28;45366;-66
2021/11/23 10:12:58;;;;;;;4.82;0.95;;;20.60;26.20;20.90;94523.00;;;;10250039;28;47580;-69
2021/11/23 10:18:11;;;;;;;5.40;0.90;;;20.60;26.80;21.00;94511.00;;;;10296499;28;45179;-67
2021/11/23 10:23:34;;;;;;;2.05;0.50;;;20.60;27.00;21.10;94522.00;;;;10296886;28;45420;-69
2021/11/23 10:28:34;;;;;;;1.70;0.90;;;20.60;27.10;21.10;94513.00;;;;10290179;28;47549;-68
2021/11/23 10:33:37;;;;;;;1.15;0.70;;;20.70;27.80;21.10;94510.00;;;;10266752;28;45645;-68
2021/11/23 10:38:39;;;;;;;0.90;0.70;;;20.70;27.40;21.20;94516.00;;;;10240531;28;48256;-64
2021/11/23 10:43:43;;;;;;;1.80;0.80;;;20.80;27.60;21.20;94519.00;;;;10266217;28;47258;-65
2021/11/23 10:48:57;;;;;;;1.85;1.05;;;20.80;27.70;20.90;94520.00;;;;10295707;28;48091;-66
2021/11/23 10:54:18;;;;;;;1.73;1.10;;;20.60;26.20;20.90;94505.00;;;;10294885;28;45334;-64
2021/11/23 10:59:19;;;;;;;1.13;0.80;;;20.60;25.80;20.90;94512.00;;;;10261622;28;47224;-64
2021/11/23 11:04:20;;;;;;;1.38;1.05;;;20.60;26.60;20.90;94498.00;;;;10248906;28;45398;-64
2021/11/23 11:09:22;;;;;;;1.70;0.93;;;20.60;26.00;20.90;94485.00;;;;10245410;28;48341;-64
2021/11/23 11:14:23;;;;;;;1.65;0.95;;;20.60;26.40;21.00;94489.00;;;;10242456;28;45465;-66
2021/11/23 11:19:46;;;;;;;1.13;0.65;;;20.60;26.40;21.10;94492.00;;;;10235154;28;45429;-64
2021/11/23 11:30:31;;;;;;;1.50;0.75;;;20.60;26.50;21.00;94497.00;;;;10248779;28;46062;-64
2021/11/23 11:35:43;;;;;;;1.20;0.70;;;20.60;26.70;21.00;94498.00;;;;10226282;28;46395;-64
2021/11/23 11:40:44;;;;;;;1.00;0.65;;;20.60;26.60;21.00;94504.00;;;;10215187;28;46873;-64
2021/11/23 11:45:51;;;;;;;0.85;0.70;;;20.60;26.70;21.00;94483.00;;;;10227654;28;47248;-69
2021/11/23 11:51:32;;;;;;;0.70;0.60;;;20.60;27.00;21.10;94505.00;;;;10218600;28;46864;-68
2021/11/23 11:56:39;;;;;;;1.67;1.10;;;20.70;26.80;20.90;94510.00;;;;10216311;28;48365;-65
2021/11/23 12:01:41;;;;;;;1.10;0.82;;;20.60;25.70;21.00;94491.00;;;;10257054;28;46610;-65
2021/11/23 12:06:54;;;;;;;1.25;0.98;;;20.60;26.50;21.00;94507.00;;;;10224393;28;48175;-64
2021/11/23 12:12:10;;;;;;;0.80;0.70;;;20.60;26.40;21.00;94499.00;;;;10234920;28;47310;-65
2021/11/23 12:17:24;;;;;;;1.00;0.80;;;20.60;26.80;21.00;94498.00;;;;10257029;28;45315;-64
2021/11/23 12:22:30;;;;;;;0.95;0.80;;;20.60;26.60;21.00;94502.00;;;;10247370;28;46311;-64
2021/11/23 12:27:36;;;;;;;0.80;0.70;;;20.60;26.60;21.00;94482.00;;;;10218297;28;46785;-64
2021/11/23 12:32:38;;;;;;;1.75;0.73;;;20.60;26.60;20.90;94490.00;;;;10247604;28;45800;-65
2021/11/23 12:37:49;;;;;;;0.55;0.50;;;20.60;26.70;21.00;94491.00;;;;10241381;28;47159;-65
2021/11/23 12:42:54;;;;;;;1.30;0.80;;;20.60;26.60;21.00;94485.00;;;;10224809;28;45212;-63
2021/11/23 12:47:55;;;;;;;0.77;0.68;;;20.60;26.70;21.00;94490.00;;;;10243895;28;47209;-65
2021/11/23 12:53:05;;;;;;;1.35;0.77;;;20.60;26.60;20.90;94488.00;;;;10318283;28;46228;-65
2021/11/23 12:58:06;;;;;;;1.27;0.70;;;20.60;26.70;20.90;94492.00;;;;10300023;28;47132;-65
2021/11/23 13:03:08;;;;;;;1.10;0.88;;;20.60;26.90;20.90;94475.00;;;;10300040;28;46899;-68
2021/11/23 13:08:16;;;;;;;1.60;1.10;;;20.50;26.10;20.90;94480.00;;;;10287560;28;47092;-63
2021/11/23 13:13:24;;;;;;;1.33;0.90;;;20.50;26.00;20.90;94483.00;;;;10298157;28;45445;-63
2021/11/23 13:18:28;;;;;;;1.05;0.68;;;20.50;26.20;20.90;94489.00;;;;10282557;28;47929;-63
2021/11/23 13:23:37;;;;;;;1.23;0.90;;;20.60;26.50;20.90;94474.00;;;;10299125;28;47035;-64
2021/11/23 13:29:04;;;;;;;1.38;0.73;;;20.60;26.40;21.00;94497.00;;;;10299070;28;46294;-63
2021/11/23 13:34:08;;;;;;;1.70;0.80;;;20.60;26.50;21.00;94497.00;;;;10300293;28;45423;-63
2021/11/23 13:39:17;;;;;;;1.48;0.80;;;20.60;26.60;21.00;94496.00;;;;10316150;28;46278;-63
2021/11/23 13:44:31;;;;;;;1.88;0.90;;;20.60;26.70;21.00;94481.00;;;;10299178;28;45182;-63
2021/11/23 13:49:42;;;;;;;1.35;0.70;;;20.60;26.70;21.00;94510.00;;;;10298588;28;46448;-63
2021/11/23 13:54:55;;;;;;;1.67;0.95;;;20.60;26.70;21.00;94505.00;;;;10299129;28;46435;-63
2021/11/23 14:00:06;;;;;;;1.20;0.80;;;20.60;26.70;21.00;94482.00;;;;10313156;28;47380;-63
2021/11/23 14:05:07;;;;;;;0.90;0.63;;;20.60;26.80;21.00;94498.00;;;;10297928;28;47397;-63
2021/11/23 14:10:08;;;;;;;0.80;0.70;;;20.60;26.80;21.00;94498.00;;;;10297266;28;45299;-63
2021/11/23 14:15:17;;;;;;;0.77;0.77;;;20.60;26.80;21.00;94493.00;;;;10297894;28;48355;-63
2021/11/23 14:20:18;;;;;;;1.60;0.80;;;20.50;26.80;21.00;94497.00;;;;10297498;28;46526;-63
2021/11/23 14:25:24;;;;;;;0.85;0.70;;;20.50;26.60;21.00;94498.00;;;;10281073;28;48139;-64
2021/11/23 14:30:26;;;;;;;;;;;20.60;26.80;21.00;94501.00;;;;10297403;28;45412;-63
2021/11/23 14:35:28;;;;;;;0.70;0.55;;;20.60;26.90;21.00;94482.00;;;;10297301;28;46961;-65
2021/11/23 14:40:29;;;;;;;0.60;0.50;;;20.60;26.80;21.00;94502.00;;;;10297176;28;45413;-64
2021/11/23 14:45:30;;;;;;;1.38;0.65;;;20.60;26.80;21.00;94504.00;;;;10296766;28;45449;-63
2021/11/23 14:50:31;;;;;;;0.95;0.70;;;20.60;26.70;21.00;94494.00;;;;10295603;28;48043;-64
2021/11/23 14:55:33;;;;;;;0.82;0.70;;;20.60;26.80;21.00;94509.00;;;;10296724;28;46494;-63
2021/11/23 15:00:35;;;;;;;1.63;0.80;;;20.60;26.80;21.00;94495.00;;;;10279552;28;48075;-63
2021/11/23 15:05:36;;;;;;;1.17;0.90;;;20.60;26.70;21.00;94510.00;;;;10295804;28;48315;-63
2021/11/23 15:10:37;;;;;;;1.10;0.80;;;20.60;26.80;21.00;94506.00;;;;10293967;28;47713;-63
2021/11/23 15:15:38;;;;;;;0.98;0.82;;;20.60;26.80;21.00;94498.00;;;;10295960;28;46545;-64
2021/11/23 15:20:38;;;;;;;0.68;0.50;;;20.60;26.70;21.00;94522.00;;;;10278931;28;47206;-63
2021/11/23 15:25:39;;;;;;;0.90;0.80;;;20.60;26.80;21.00;94519.00;;;;10278926;28;47361;-63
2021/11/23 15:30:47;;;;;;;0.95;0.70;;;20.60;26.80;21.00;94521.00;;;;10294918;28;47394;-64
2021/11/23 15:35:48;;;;;;;0.77;0.75;;;20.60;27.00;21.00;94505.00;;;;10295541;28;45350;-63
2021/11/23 15:40:49;;;;;;;1.10;0.75;;;20.60;26.70;21.00;94511.00;;;;10294894;28;45603;-63
2021/11/23 15:45:50;;;;;;;0.90;0.65;;;20.60;26.70;21.00;94527.00;;;;10278203;28;47156;-63
2021/11/23 15:50:51;;;;;;;1.77;0.95;;;20.60;26.60;21.00;94529.00;;;;10294353;28;45144;-63
2021/11/23 15:55:56;;;;;;;1.35;0.90;;;20.60;26.80;21.00;94520.00;;;;10312659;28;45381;-64
2021/11/23 16:00:57;;;;;;;1.27;0.90;;;20.60;26.60;20.90;94502.00;;;;10294132;28;46317;-63
2021/11/23 16:05:58;;;;;;;0.88;0.77;;;20.60;26.60;21.00;94521.00;;;;10294101;28;46496;-64
2021/11/23 16:10:59;;;;;;;1.27;0.80;;;20.60;26.60;21.00;94526.00;;;;10293129;28;45321;-64
2021/11/23 16:16:04;;;;;;;1.10;0.70;;;20.60;26.60;21.00;94521.00;;;;10293417;28;46362;-64
2021/11/23 16:21:05;;;;;;;1.10;0.90;;;20.60;26.60;21.00;94519.00;;;;10296761;28;45517;-64
2021/11/23 16:26:07;;;;;;;1.52;0.90;;;20.60;26.60;20.90;94515.00;;;;10306336;28;45437;-64
2021/11/23 16:31:08;;;;;;;2.03;1.40;;;20.60;26.50;20.90;94514.00;;;;10306220;28;46514;-64
2021/11/23 16:36:10;;;;;;;2.20;1.30;;;20.50;24.90;20.90;94523.00;;;;10305634;28;47547;-63
2021/11/23 16:41:11;;;;;;;1.60;1.15;;;20.50;25.30;20.90;94523.00;;;;10306652;28;46355;-63
2021/11/23 16:46:13;;;;;;;1.23;1.00;;;20.50;25.60;20.80;94524.00;;;;10306272;28;45166;-64
2021/11/23 16:51:13;;;;;;;1.75;1.45;;;20.50;25.50;20.80;94527.00;;;;10304140;28;46511;-65
2021/11/23 16:56:17;;;;;;;1.50;1.10;;;20.50;24.90;20.90;94513.00;;;;10303946;28;47098;-70
2021/11/23 17:01:18;;;;;;;1.30;1.20;;;20.50;25.80;21.00;94518.00;;;;10301633;28;45126;-68
2021/11/23 17:06:19;;;;;;;0.98;0.80;;;20.60;26.10;21.10;94526.00;;;;10267105;28;47313;-66
2021/11/23 17:11:21;;;;;;;1.02;0.70;;;20.60;26.20;21.10;94543.00;;;;10253280;28;45233;-67
2021/11/23 17:16:22;;;;;;;2.75;0.70;;;20.70;27.00;21.10;94544.00;;;;10285989;28;46019;-67
2021/11/23 17:21:28;;;;;;;1.60;0.82;;;20.70;26.90;21.10;94537.00;;;;10239804;28;45391;-67
2021/11/23 17:26:31;;;;;;;1.03;0.80;;;20.70;26.60;21.10;94529.00;;;;10235696;28;47131;-67
2021/11/23 17:31:33;;;;;;;1.05;0.77;;;20.70;26.60;21.20;94537.00;;;;10264409;28;46962;-67
2021/11/23 17:36:34;;;;;;;1.83;0.60;;;20.80;26.60;21.20;94528.00;;;;10250510;28;46948;-67
2021/11/23 17:41:34;;;;;;;0.75;0.70;;;20.80;26.60;21.20;94530.00;;;;10225364;28;45271;-65
2021/11/23 17:46:35;;;;;;;0.75;0.60;;;20.80;26.60;21.20;94509.00;;;;10239434;28;46871;-67
2021/11/23 17:51:42;;;;;;;1.08;0.70;;;20.80;26.70;21.20;94525.00;;;;10255012;28;45692;-69
2021/11/23 17:56:43;;;;;;;1.38;0.82;;;20.80;26.70;21.20;94524.00;;;;10218565;28;47045;-67
2021/11/23 18:01:47;;;;;;;0.80;0.60;;;20.80;26.90;21.30;94514.00;;;;10242720;28;45464;-67
2021/11/23 18:06:48;;;;;;;0.55;0.52;;;20.90;26.90;21.30;94520.00;;;;10235505;28;47437;-70
2021/11/23 18:11:48;;;;;;;0.98;0.70;;;20.90;27.10;21.30;94519.00;;;;10225185;28;48042;-69
2021/11/23 18:16:49;;;;;;;1.08;0.70;;;20.90;27.10;21.30;94512.00;;;;10220775;28;47059;-69
2021/11/23 18:21:50;;;;;;;0.70;0.60;;;20.90;27.10;21.30;94507.00;;;;10257322;28;45294;-70
2021/11/23 18:26:50;;;;;;;0.60;0.60;;;20.90;27.10;21.40;94515.00;;;;10241374;28;47219;-70
2021/11/23 18:31:51;;;;;;;1.35;0.70;;;21.00;27.20;21.40;94505.00;;;;10234878;28;45579;-65
2021/11/23 18:36:55;;;;;;;1.48;0.80;;;21.00;27.20;21.40;94498.00;;;;10240181;28;46784;-73
2021/11/23 18:41:57;;;;;;;0.90;0.70;;;20.90;27.30;21.40;94502.00;;;;10240046;28;45352;-67
2021/11/23 18:47:02;;;;;;;1.48;0.77;;;21.00;27.60;21.40;94496.00;;;;10294570;28;45577;-69
2021/11/23 18:52:20;;;;;;;1.63;0.95;;;21.00;27.50;21.20;94518.00;;;;10270318;28;46822;-67
2021/11/23 18:57:22;;;;;;;1.98;1.20;;;21.00;26.40;21.20;94513.00;;;;10257600;28;48409;-65
2021/11/23 19:02:24;;;;;;;0.80;0.70;;;20.90;26.10;21.30;94482.00;;;;10256488;28;45144;-67
2021/11/23 19:07:27;;;;;;;0.98;0.68;;;20.90;26.60;21.40;94499.00;;;;10255818;28;47948;-68
2021/11/23 19:12:30;;;;;;;1.20;0.73;;;21.00;26.50;21.30;94501.00;;;;10256587;28;45597;-68
2021/11/23 19:17:34;;;;;;;0.98;0.70;;;21.00;26.70;21.30;94489.00;;;;10255654;28;47137;-66
2021/11/23 19:22:35;;;;;;;1.30;1.00;;;20.90;26.40;21.30;94506.00;;;;10254983;28;46647;-66
2021/11/23 19:27:36;;;;;;;1.50;0.90;;;21.00;26.50;21.40;94503.00;;;;10268409;28;47500;-66
2021/11/23 19:32:39;;;;;;;1.10;0.90;;;21.00;26.70;21.40;94491.00;;;;10273570;28;46861;-67
2021/11/23 19:37:42;;;;;;;1.17;0.90;;;21.00;26.80;21.40;94484.00;;;;10256557;28;46228;-68
2021/11/23 19:42:46;;;;;;;1.25;0.90;;;21.00;26.80;21.40;94472.00;;;;10255544;28;48006;-67
2021/11/23 19:47:48;;;;;;;1.20;0.85;;;21.10;26.70;21.40;94490.00;;;;10255900;28;48225;-68
2021/11/23 19:52:49;;;;;;;1.27;0.90;;;21.10;26.90;21.40;94487.00;;;;10255552;28;48783;-63
2021/11/23 19:57:57;;;;;;;1.67;1.00;;;21.10;26.90;21.40;94467.00;;;;10254136;28;46943;-66
2021/11/23 20:02:59;;;;;;;0.77;0.63;;;21.10;26.90;21.50;94465.00;;;;10254493;28;47062;-66
2021/11/23 20:08:02;;;;;;;1.10;0.85;;;21.10;27.00;21.40;94469.00;;;;10253969;28;47004;-63
2021/11/23 20:13:03;;;;;;;1.95;0.98;;;21.10;27.00;21.50;94471.00;;;;10253885;28;45321;-63
2021/11/23 20:18:06;;;;;;;1.02;0.90;;;21.10;26.90;21.50;94484.00;;;;10272743;28;47138;-66
2021/11/23 20:23:07;;;;;;;1.75;1.10;;;21.10;26.90;21.30;94489.00;;;;10274610;28;46418;-66
2021/11/23 20:28:09;;;;;;;1.13;0.95;;;21.00;25.50;21.30;94491.00;;;;10257008;28;45404;-67
2021/11/23 20:33:11;;;;;;;1.08;0.88;;;21.00;26.00;21.30;94463.00;;;;10253832;28;45365;-67
2021/11/23 20:38:17;;;;;;;2.03;0.77;;;21.00;26.10;21.40;94473.00;;;;10237016;28;47127;-67
2021/11/23 20:43:19;;;;;;;0.83;0.77;;;20.90;26.40;21.40;94467.00;;;;10237391;28;47186;-67
2021/11/23 20:48:20;;;;;;;1.08;0.65;;;21.00;26.40;21.40;94454.00;;;;10263787;28;45336;-68
2021/11/23 20:53:21;;;;;;;2.25;0.70;;;21.00;26.30;21.30;94460.00;;;;10294013;28;45192;-67
2021/11/23 20:58:22;;;;;;;2.00;0.70;;;21.00;26.50;21.40;94474.00;;;;10276701;28;47332;-68
2021/11/23 21:03:27;;;;;;;0.90;0.70;;;20.90;26.40;21.30;94459.00;;;;10292659;28;47260;-67
2021/11/23 21:08:30;;;;;;;0.88;0.60;;;20.90;26.40;21.30;94457.00;;;;10293956;28;48272;-68
2021/11/23 21:13:32;;;;;;;1.20;0.70;;;20.90;26.40;21.30;94461.00;;;;10299687;28;48390;-67
2021/11/23 21:18:34;;;;;;;0.90;0.70;;;20.90;26.50;21.30;94448.00;;;;10298904;28;47478;-68
2021/11/23 21:23:36;;;;;;;0.65;0.65;;;20.90;26.40;21.20;94453.00;;;;10299010;28;46670;-70
2021/11/23 21:28:36;;;;;;;0.70;0.60;;;20.90;26.40;21.20;94448.00;;;;10279640;28;46975;-68
2021/11/23 21:33:37;;;;;;;0.73;0.60;;;20.90;26.40;21.20;94439.00;;;;10227298;28;48397;-68
2021/11/23 21:38:38;;;;;;;0.85;0.55;;;20.80;26.30;21.10;94440.00;;;;10279529;28;46960;-68
2021/11/23 21:43:47;;;;;;;0.63;0.60;;;20.80;26.20;21.10;94444.00;;;;10298285;28;47218;-67
2021/11/23 21:48:48;;;;;;;0.90;0.50;;;20.80;26.40;21.10;94424.00;;;;10300044;28;45158;-67
2021/11/23 21:53:49;;;;;;;0.73;0.60;;;20.70;26.20;21.10;94433.00;;;;10299206;28;46934;-67
2021/11/23 21:58:51;;;;;;;0.63;0.60;;;20.70;26.30;21.10;94429.00;;;;10298501;28;45220;-67
2021/11/23 22:03:53;;;;;;;0.95;0.70;;;20.70;26.40;21.00;94445.00;;;;10298725;28;45344;-67
2021/11/23 22:08:54;;;;;;;0.60;0.60;;;20.70;26.30;21.00;94437.00;;;;10297770;28;45328;-67
2021/11/23 22:13:54;;;;;;;1.15;0.70;;;20.70;26.30;21.00;94438.00;;;;10298381;28;46699;-67